Time;durP1;ratioP1;P1;durP2;ratioP2;P2;SDS_P1;SDS_P2;PMS_P1;PMS_P2;Temp;Humidity;BMP_temperature;BMP_pressure;BME280_temperature;BME280_humidity;BME280_pressure;Samples;Min_cycle;Max_cycle;Signal;HPM_P1;HPM_P2
2021/11/22 00:00:31;;;;;;;2.63;0.32;;;;;;;3.88;49.63;102045.25;5008163;28;20037;-67
2021/11/22 00:02:58;;;;;;;2.07;0.10;;;;;;;3.73;50.10;102045.13;5007149;28;20034;-68
2021/11/22 00:05:24;;;;;;;2.38;0.00;;;;;;;3.86;49.77;102049.53;4992588;28;20129;-67
2021/11/22 00:07:49;;;;;;;1.02;0.00;;;;;;;3.71;50.13;102054.59;4988764;28;20065;-67
2021/11/22 00:10:15;;;;;;;3.42;0.40;;;;;;;3.65;50.04;102068.34;4991771;28;20088;-68
2021/11/22 00:12:41;;;;;;;1.08;0.30;;;;;;;3.74;50.01;102062.41;4971962;28;20050;-67
2021/11/22 00:15:10;;;;;;;2.83;0.10;;;;;;;3.74;49.89;102062.41;5007393;28;20026;-67
2021/11/22 00:17:37;;;;;;;5.53;0.10;;;;;;;3.67;50.17;102069.25;5005595;28;20040;-68
2021/11/22 00:20:10;;;;;;;2.35;0.10;;;;;;;3.60;49.99;102070.00;4988312;28;20139;-67
2021/11/22 00:22:36;;;;;;;7.68;0.10;;;;;;;3.53;50.38;102063.94;5006440;28;20061;-67
2021/11/22 00:25:03;;;;;;;0.47;0.10;;;;;;;3.67;49.79;102070.94;4990871;28;20034;-68
2021/11/22 00:27:29;;;;;;;1.70;0.22;;;;;;;3.60;50.27;102072.59;5011651;28;20041;-67
2021/11/22 00:29:58;;;;;;;0.60;0.30;;;;;;;3.57;50.06;102068.28;4988879;28;20033;-68
2021/11/22 00:32:37;;;;;;;0.68;0.10;;;;;;;3.49;49.92;102080.28;5004356;28;20820;-67
2021/11/22 00:35:32;;;;;;;0.43;0.00;;;;;;;3.43;50.12;102085.41;4976561;28;20030;-68
2021/11/22 00:38:00;;;;;;;1.52;0.20;;;;;;;3.49;49.76;102087.16;4988874;28;20172;-66
2021/11/22 00:40:25;;;;;;;4.03;1.13;;;;;;;3.25;50.52;102093.81;5007265;28;20658;-67
2021/11/22 00:42:51;;;;;;;0.47;0.20;;;;;;;3.05;51.25;102093.59;5008232;28;20907;-67
2021/11/22 00:45:17;;;;;;;1.92;0.15;;;;;;;3.33;50.30;102102.50;4988390;28;20099;-67
2021/11/22 00:47:44;;;;;;;1.55;0.00;;;;;;;3.22;50.83;102109.25;4990989;28;20048;-67
2021/11/22 00:50:10;;;;;;;2.17;0.15;;;;;;;3.12;50.92;102103.13;4992307;28;20038;-68
2021/11/22 00:52:36;;;;;;;2.25;0.20;;;;;;;3.33;50.36;102114.56;5008204;28;20100;-68
2021/11/22 00:55:03;;;;;;;3.78;0.20;;;;;;;3.23;50.50;102118.75;4991666;28;20028;-68
2021/11/22 00:57:28;;;;;;;0.50;0.47;;;;;;;3.21;50.62;102117.88;5005896;28;20496;-67
2021/11/22 00:59:54;;;;;;;3.95;0.20;;;;;;;3.22;50.54;102117.00;4988453;28;20052;-68
2021/11/22 01:02:23;;;;;;;4.70;0.10;;;;;;;3.21;50.41;102122.19;4985644;28;20131;-68
2021/11/22 01:04:48;;;;;;;0.17;0.10;;;;;;;3.12;50.67;102128.97;4979850;28;20034;-66
2021/11/22 01:07:14;;;;;;;0.30;0.00;;;;;;;3.25;49.89;102131.69;5004286;28;20136;-67
2021/11/22 01:09:40;;;;;;;2.92;0.43;;;;;;;3.01;50.79;102132.28;4988634;28;20037;-67
2021/11/22 01:12:06;;;;;;;3.92;0.10;;;;;;;3.18;50.16;102131.63;4987805;28;20422;-68
2021/11/22 01:14:35;;;;;;;1.02;0.08;;;;;;;3.14;50.54;102137.63;5004134;28;20683;-67
2021/11/22 01:17:00;;;;;;;0.40;0.00;;;;;;;3.28;49.70;102134.31;5002160;28;20554;-68
2021/11/22 01:19:26;;;;;;;1.60;0.13;;;;;;;3.25;49.72;102139.44;4984363;28;20030;-68
2021/11/22 01:21:51;;;;;;;1.63;0.20;;;;;;;3.12;49.53;102144.47;5002242;28;20731;-68
2021/11/22 01:24:17;;;;;;;2.03;0.30;;;;;;;3.04;49.72;102146.09;5003036;28;20056;-67
2021/11/22 01:26:42;;;;;;;0.25;0.00;;;;;;;2.91;49.62;102150.25;4998639;28;20409;-68
2021/11/22 01:29:08;;;;;;;1.45;0.10;;;;;;;2.72;49.96;102154.31;5004123;28;20044;-68
2021/11/22 01:31:34;;;;;;;0.82;0.10;;;;;;;2.65;49.82;102165.41;4984746;28;20111;-67
2021/11/22 01:33:59;;;;;;;4.22;0.47;;;;;;;2.63;50.51;102172.25;4969637;28;20036;-68
2021/11/22 01:36:25;;;;;;;2.65;0.20;;;;;;;2.62;50.50;102175.66;5002802;28;20048;-67
2021/11/22 01:38:50;;;;;;;0.93;0.10;;;;;;;2.52;50.91;102173.81;5002393;28;20144;-68
2021/11/22 01:41:16;;;;;;;0.82;0.00;;;;;;;2.47;50.73;102176.34;4985382;28;20030;-67
2021/11/22 01:43:42;;;;;;;1.80;0.10;;;;;;;2.38;50.85;102177.91;5006602;28;20045;-67
2021/11/22 01:46:15;;;;;;;1.25;0.10;;;;;;;2.31;50.80;102188.16;4972763;28;20046;-68
2021/11/22 01:48:41;;;;;;;0.28;0.00;;;;;;;2.30;50.68;102180.38;4982714;28;20503;-68
2021/11/22 01:51:06;;;;;;;0.57;0.20;;;;;;;2.21;50.62;102186.25;4989406;28;20072;-69
2021/11/22 01:53:32;;;;;;;0.22;0.00;;;;;;;2.18;50.86;102185.34;4985994;28;20054;-66
2021/11/22 01:55:57;;;;;;;0.13;0.00;;;;;;;2.11;50.83;102197.28;4988041;28;20551;-68
2021/11/22 01:58:23;;;;;;;0.90;0.10;;;;;;;2.03;51.16;102198.84;4986094;28;20077;-67
2021/11/22 02:00:54;;;;;;;1.13;0.13;;;;;;;2.03;50.93;102207.47;4966498;28;20870;-67
2021/11/22 02:03:20;;;;;;;0.25;0.15;;;;;;;1.88;50.95;102213.22;4986685;28;20041;-68
2021/11/22 02:05:51;;;;;;;0.22;0.10;;;;;;;1.89;51.11;102216.69;4978795;28;21013;-69
2021/11/22 02:08:17;;;;;;;1.48;0.10;;;;;;;1.90;51.03;102218.41;4971399;28;20033;-68
2021/11/22 02:10:42;;;;;;;0.47;0.00;;;;;;;1.86;50.85;102217.50;4987057;28;20048;-68
2021/11/22 02:13:08;;;;;;;5.00;0.20;;;;;;;1.82;50.98;102223.44;4984791;28;20640;-67
2021/11/22 02:15:34;;;;;;;0.10;0.00;;;;;;;1.80;51.01;102224.25;4989406;28;20033;-68
2021/11/22 02:17:59;;;;;;;2.28;0.17;;;;;;;1.76;51.29;102220.75;4987885;28;20041;-68
2021/11/22 02:20:28;;;;;;;0.30;0.13;;;;;;;1.72;51.15;102229.25;4987232;28;20033;-69
2021/11/22 02:22:56;;;;;;;1.33;0.10;;;;;;;1.74;51.22;102225.00;4964693;28;20057;-66
2021/11/22 02:25:24;;;;;;;1.00;0.00;;;;;;;1.77;51.03;102230.19;4986381;28;20026;-68
2021/11/22 02:27:50;;;;;;;1.23;0.08;;;;;;;1.73;50.94;102231.00;4985138;28;20049;-67
2021/11/22 02:30:19;;;;;;;0.20;0.10;;;;;;;1.74;51.16;102235.31;4981238;28;20045;-66
2021/11/22 02:32:46;;;;;;;0.30;0.00;;;;;;;1.80;50.96;102235.44;4984270;28;20045;-68
2021/11/22 02:35:15;;;;;;;0.75;0.03;;;;;;;1.80;51.35;102234.56;5003586;28;20033;-67
2021/11/22 02:37:41;;;;;;;0.10;0.00;;;;;;;1.76;51.35;102243.94;4962645;28;20053;-67
2021/11/22 02:40:07;;;;;;;0.28;0.03;;;;;;;1.73;51.62;102254.19;4983489;28;20271;-67
2021/11/22 02:42:40;;;;;;;1.85;0.00;;;;;;;1.79;51.30;102245.69;5002306;28;20115;-67
2021/11/22 02:45:06;;;;;;;3.67;0.10;;;;;;;1.79;51.30;102250.84;4987330;28;20416;-67
2021/11/22 02:47:32;;;;;;;1.30;0.00;;;;;;;1.76;51.44;102248.22;4986629;28;20049;-66
2021/11/22 02:49:57;;;;;;;2.55;0.10;;;;;;;1.79;51.60;102254.28;4985165;28;20040;-69
2021/11/22 02:52:23;;;;;;;0.40;0.00;;;;;;;1.79;51.20;102249.13;5002124;28;20464;-67
2021/11/22 02:54:48;;;;;;;2.25;0.10;;;;;;;1.76;51.43;102248.22;4987189;28;20547;-67
2021/11/22 02:57:14;;;;;;;2.25;0.43;;;;;;;1.81;51.11;102257.78;4984347;28;20417;-68
2021/11/22 02:59:40;;;;;;;0.25;0.00;;;;;;;1.82;51.33;102258.63;4986770;28;20128;-67
2021/11/22 03:02:07;;;;;;;2.53;0.03;;;;;;;1.73;51.34;102267.09;4983228;28;20108;-67
2021/11/22 03:04:38;;;;;;;0.98;0.10;;;;;;;1.66;51.50;102267.78;5004848;28;20064;-67
2021/11/22 03:07:04;;;;;;;0.23;0.00;;;;;;;1.67;51.22;102270.41;4966369;28;20657;-67
2021/11/22 03:09:30;;;;;;;0.20;0.00;;;;;;;1.68;51.26;102271.25;5003474;28;20030;-67
2021/11/22 03:11:59;;;;;;;3.50;0.13;;;;;;;1.63;51.16;102262.59;4968177;28;20072;-67
2021/11/22 03:14:26;;;;;;;1.27;0.08;;;;;;;1.62;51.51;102271.16;4986334;28;20041;-67
2021/11/22 03:16:55;;;;;;;2.83;0.10;;;;;;;1.57;51.35;102272.75;5002704;28;21490;-67
2021/11/22 03:19:21;;;;;;;1.13;0.00;;;;;;;1.54;51.46;102288.19;5001432;28;20041;-67
2021/11/22 03:21:48;;;;;;;1.85;0.10;;;;;;;1.49;51.14;102276.06;5001709;28;20049;-67
2021/11/22 03:24:16;;;;;;;0.70;0.00;;;;;;;1.46;51.44;102285.44;4985576;28;20038;-66
2021/11/22 03:26:42;;;;;;;1.27;0.10;;;;;;;1.43;51.52;102288.81;4967048;28;20049;-67
2021/11/22 03:29:09;;;;;;;1.00;0.20;;;;;;;1.40;51.73;102290.44;4984536;28;20076;-67
2021/11/22 03:31:36;;;;;;;1.83;0.05;;;;;;;1.39;51.76;102299.00;4984846;28;20045;-67
2021/11/22 03:34:03;;;;;;;0.20;0.00;;;;;;;1.44;51.57;102295.72;5003930;28;20065;-66
2021/11/22 03:36:31;;;;;;;1.15;0.00;;;;;;;1.46;51.62;102293.16;4980783;28;20033;-66
2021/11/22 03:38:58;;;;;;;0.40;0.00;;;;;;;1.46;51.46;102291.47;4985658;28;20042;-65
2021/11/22 03:41:24;;;;;;;2.17;0.10;;;;;;;1.46;51.47;102300.88;5005137;28;20083;-68
2021/11/22 03:43:56;;;;;;;0.08;0.00;;;;;;;1.44;51.16;102305.13;4980810;28;20111;-67
2021/11/22 03:46:22;;;;;;;1.50;0.10;;;;;;;1.35;51.38;102305.81;4984706;28;20041;-68
2021/11/22 03:48:49;;;;;;;0.20;0.00;;;;;;;1.36;51.23;102304.94;4987236;28;20404;-67
2021/11/22 03:51:15;;;;;;;0.10;0.00;;;;;;;1.28;51.17;102309.06;4967502;28;20057;-67
2021/11/22 03:53:40;;;;;;;0.38;0.00;;;;;;;1.27;51.30;102317.63;4983852;28;20045;-67
2021/11/22 03:56:07;;;;;;;1.95;0.00;;;;;;;1.25;51.40;102319.31;4984882;28;20022;-66
2021/11/22 03:58:32;;;;;;;1.77;0.00;;;;;;;1.24;51.44;102320.16;4967046;28;20046;-65
2021/11/22 04:00:58;;;;;;;0.43;0.00;;;;;;;1.30;51.20;102322.84;4983975;28;20099;-68
2021/11/22 04:03:23;;;;;;;0.52;0.00;;;;;;;1.21;51.24;102331.25;4987484;28;20054;-67
2021/11/22 04:05:49;;;;;;;1.35;0.05;;;;;;;1.15;51.19;102335.38;4984260;28;20053;-68
2021/11/22 04:08:16;;;;;;;1.13;0.00;;;;;;;1.06;51.32;102331.78;4968385;28;20030;-67
2021/11/22 04:10:42;;;;;;;0.65;0.10;;;;;;;1.06;51.16;102331.78;4982718;28;20030;-68
2021/11/22 04:13:09;;;;;;;1.65;0.00;;;;;;;1.00;51.32;102331.63;4982311;28;20049;-68
2021/11/22 04:15:36;;;;;;;0.32;0.00;;;;;;;1.00;51.45;102336.78;4977788;28;20038;-69
2021/11/22 04:18:02;;;;;;;0.75;0.05;;;;;;;0.88;51.33;102332.22;4984719;28;20400;-67
2021/11/22 04:20:28;;;;;;;0.28;0.05;;;;;;;0.92;51.30;102338.28;4978903;28;20030;-68
2021/11/22 04:22:53;;;;;;;0.73;0.10;;;;;;;0.84;51.20;102350.13;5001063;28;20111;-68
2021/11/22 04:25:20;;;;;;;0.60;0.10;;;;;;;0.74;51.37;102348.16;5004480;28;20026;-67
2021/11/22 04:27:46;;;;;;;0.88;0.00;;;;;;;0.77;51.21;102348.22;4991682;28;20127;-67
2021/11/22 04:30:12;;;;;;;2.78;0.15;;;;;;;0.74;51.38;102358.47;4986615;28;20076;-66
2021/11/22 04:32:39;;;;;;;1.70;0.00;;;;;;;0.72;51.47;102362.69;5005171;28;20050;-67
2021/11/22 04:35:07;;;;;;;0.43;0.00;;;;;;;0.67;51.41;102367.72;4985434;28;20021;-67
2021/11/22 04:37:33;;;;;;;2.08;0.20;;;;;;;0.65;51.48;102361.66;5007335;28;20416;-68
2021/11/22 04:39:59;;;;;;;0.15;0.00;;;;;;;0.60;51.49;102364.13;4990086;28;20037;-68
2021/11/22 04:42:24;;;;;;;0.80;0.00;;;;;;;0.55;51.82;102368.28;4993191;28;20045;-67
2021/11/22 04:44:50;;;;;;;0.45;0.10;;;;;;;0.56;51.89;102367.44;5006328;28;20034;-67
2021/11/22 04:47:19;;;;;;;4.13;0.10;;;;;;;0.54;51.58;102375.97;4989001;28;20083;-68
2021/11/22 04:49:49;;;;;;;1.25;0.20;;;;;;;0.57;51.60;102371.78;4978960;28;20040;-67
2021/11/22 04:52:15;;;;;;;1.05;0.00;;;;;;;0.53;51.38;102374.22;4994769;28;20137;-66
2021/11/22 04:54:41;;;;;;;0.80;0.10;;;;;;;0.44;51.70;102385.16;4989671;28;20034;-68
2021/11/22 04:57:07;;;;;;;2.75;0.10;;;;;;;0.49;51.50;102386.13;4991825;28;20046;-68
2021/11/22 04:59:34;;;;;;;0.08;0.00;;;;;;;0.37;51.52;102388.41;4992824;28;20038;-67
2021/11/22 05:02:00;;;;;;;1.20;0.10;;;;;;;0.27;51.57;102380.41;4988953;28;20048;-68
2021/11/22 05:04:25;;;;;;;1.00;0.15;;;;;;;0.28;51.60;102395.03;4990142;28;23497;-67
2021/11/22 05:06:51;;;;;;;1.80;0.20;;;;;;;0.27;51.49;102387.25;4993494;28;20026;-66
2021/11/22 05:09:16;;;;;;;0.90;0.10;;;;;;;0.31;51.39;102398.50;5010240;28;20496;-68
2021/11/22 05:11:43;;;;;;;0.70;0.20;;;;;;;0.28;51.52;102399.31;4988987;28;20037;-67
2021/11/22 05:14:10;;;;;;;2.35;0.43;;;;;;;0.18;51.70;102403.31;5006764;28;20025;-67
2021/11/22 05:16:39;;;;;;;1.17;0.20;;;;;;;0.13;51.55;102399.75;4994918;28;20042;-67
2021/11/22 05:19:05;;;;;;;0.73;0.17;;;;;;;0.14;51.73;102405.75;4990971;28;20037;-67
2021/11/22 05:21:32;;;;;;;0.95;0.30;;;;;;;0.12;51.46;102408.28;5011850;28;20037;-68
2021/11/22 05:24:02;;;;;;;0.85;0.20;;;;;;;0.06;51.62;102414.13;5004386;28;20107;-68
2021/11/22 05:26:31;;;;;;;2.58;0.20;;;;;;;0.03;51.67;102421.75;4978701;28;20049;-69
2021/11/22 05:28:57;;;;;;;0.50;0.10;;;;;;;0.04;51.75;102425.19;4992505;28;20040;-67
2021/11/22 05:31:24;;;;;;;1.38;0.25;;;;;;;0.05;51.46;102432.97;4980800;28;20053;-68
2021/11/22 05:33:50;;;;;;;5.68;0.17;;;;;;;-0.02;51.68;102427.59;4970562;28;20109;-68
2021/11/22 05:36:16;;;;;;;2.47;0.20;;;;;;;0.00;51.39;102431.94;4986806;28;20480;-67
2021/11/22 05:38:42;;;;;;;0.88;0.10;;;;;;;-0.08;51.57;102440.25;4986202;28;20037;-69
2021/11/22 05:41:07;;;;;;;1.75;0.10;;;;;;;-0.10;51.41;102442.81;5003016;28;20490;-68
2021/11/22 05:43:35;;;;;;;0.80;0.20;;;;;;;-0.11;51.56;102447.88;4984257;28;20053;-68
2021/11/22 05:46:01;;;;;;;1.90;0.20;;;;;;;-0.16;51.73;102438.34;4985448;28;20040;-68
2021/11/22 05:48:27;;;;;;;3.25;0.35;;;;;;;-0.14;51.58;102441.81;4968215;28;20042;-67
2021/11/22 05:50:55;;;;;;;3.22;0.95;;;;;;;-0.16;51.62;102448.63;4987073;28;20044;-67
2021/11/22 05:53:22;;;;;;;1.60;0.45;;;;;;;-0.16;51.56;102448.63;4990886;28;20130;-68
2021/11/22 05:55:51;;;;;;;0.88;0.35;;;;;;;-0.18;51.72;102445.13;4972277;28;20026;-67
2021/11/22 05:58:19;;;;;;;0.98;0.20;;;;;;;-0.15;51.64;102444.34;5005481;28;20040;-67
2021/11/22 06:00:46;;;;;;;2.17;0.50;;;;;;;-0.08;51.62;102455.69;4990026;28;20500;-67
2021/11/22 06:03:12;;;;;;;1.95;1.10;;;;;;;-0.10;51.35;102459.91;5003211;28;20046;-68
2021/11/22 06:05:39;;;;;;;3.47;0.50;;;;;;;-0.16;51.32;102458.91;4990289;28;20049;-68
2021/11/22 06:08:05;;;;;;;2.88;0.30;;;;;;;-0.23;51.35;102471.53;4990332;28;20046;-67
2021/11/22 06:10:32;;;;;;;1.45;0.40;;;;;;;-0.27;51.36;102467.97;4989628;28;20055;-68
2021/11/22 06:12:57;;;;;;;4.13;0.30;;;;;;;-0.28;51.31;102468.81;4980816;28;20476;-66
2021/11/22 06:15:23;;;;;;;5.57;2.50;;;;;;;-0.30;51.58;102465.34;4987011;28;20117;-68
2021/11/22 06:17:50;;;;;;;7.95;3.63;;;;;;;-0.38;51.64;102475.34;4980367;28;20062;-67
2021/11/22 06:20:16;;;;;;;2.17;0.93;;;;;;;-0.40;51.81;102478.69;4985615;28;20038;-67
2021/11/22 06:22:42;;;;;;;2.22;0.70;;;;;;;-0.41;51.72;102482.09;4985489;28;20084;-68
2021/11/22 06:25:08;;;;;;;2.00;0.73;;;;;;;-0.46;51.79;102483.63;4987138;28;20034;-68
2021/11/22 06:27:34;;;;;;;2.83;1.40;;;;;;;-0.45;51.87;102486.25;4994274;28;20053;-68
2021/11/22 06:30:00;;;;;;;1.83;0.22;;;;;;;-0.51;52.15;102475.78;4987377;28;20395;-68
2021/11/22 06:32:27;;;;;;;1.30;0.20;;;;;;;-0.52;52.68;102488.59;5003358;28;21383;-67
2021/11/22 06:34:54;;;;;;;2.10;0.20;;;;;;;-0.22;52.25;102498.97;4975673;28;20124;-67
2021/11/22 06:37:21;;;;;;;2.47;0.17;;;;;;;-0.20;51.63;102503.31;4987941;28;20041;-67
2021/11/22 06:39:47;;;;;;;3.50;0.30;;;;;;;-0.35;51.68;102500.25;4975772;28;20092;-67
2021/11/22 06:42:13;;;;;;;1.45;0.25;;;;;;;-0.40;51.54;102512.09;4989113;28;20038;-68
2021/11/22 06:44:38;;;;;;;2.35;0.25;;;;;;;-0.44;51.85;102512.81;5007653;28;20037;-68
2021/11/22 06:47:04;;;;;;;3.58;0.40;;;;;;;-0.47;52.03;102508.47;4991193;28;20515;-66
2021/11/22 06:49:31;;;;;;;5.00;0.30;;;;;;;-0.42;51.99;102519.75;5006210;28;20021;-68
2021/11/22 06:51:57;;;;;;;1.02;0.15;;;;;;;-0.31;51.81;102520.09;4989777;28;20045;-68
2021/11/22 06:54:23;;;;;;;1.00;0.32;;;;;;;-0.31;51.83;102524.38;5010045;28;20817;-68
2021/11/22 06:56:49;;;;;;;1.00;0.40;;;;;;;-0.26;51.78;102527.94;5003502;28;20039;-67
2021/11/22 06:59:14;;;;;;;2.30;0.45;;;;;;;-0.37;51.90;102531.06;4990846;28;20215;-67
2021/11/22 07:01:40;;;;;;;2.17;0.30;;;;;;;-0.41;52.19;102523.22;5006727;28;20089;-68
2021/11/22 07:04:06;;;;;;;3.53;0.65;;;;;;;-0.41;52.66;102530.91;4971343;28;20664;-68
2021/11/22 07:06:31;;;;;;;1.95;0.50;;;;;;;-0.36;52.40;102534.50;4987844;28;20057;-67
2021/11/22 07:08:57;;;;;;;2.08;0.40;;;;;;;-0.33;52.19;102537.16;4986264;28;20044;-67
2021/11/22 07:11:22;;;;;;;6.55;0.40;;;;;;;-0.34;52.09;102535.44;4987684;28;20437;-67
2021/11/22 07:13:49;;;;;;;1.45;0.63;;;;;;;-0.30;52.09;102537.28;4990700;28;20400;-67
2021/11/22 07:16:16;;;;;;;3.60;1.10;;;;;;;-0.12;52.07;102542.13;4991671;28;20122;-67
2021/11/22 07:18:42;;;;;;;2.83;0.40;;;;;;;-0.09;52.03;102542.19;4992760;28;20046;-67
2021/11/22 07:21:08;;;;;;;1.15;0.63;;;;;;;-0.08;51.74;102543.06;4988819;28;20026;-68
2021/11/22 07:23:33;;;;;;;1.77;0.50;;;;;;;-0.14;52.11;102549.78;4986350;28;20483;-68
2021/11/22 07:25:59;;;;;;;2.60;0.50;;;;;;;-0.06;51.80;102552.56;4975878;28;20032;-67
2021/11/22 07:28:26;;;;;;;3.28;0.65;;;;;;;0.07;51.85;102562.41;4983509;28;20646;-68
2021/11/22 07:30:52;;;;;;;4.38;0.75;;;;;;;0.09;51.56;102566.75;4975411;28;20047;-67
2021/11/22 07:33:18;;;;;;;1.20;0.32;;;;;;;0.04;51.76;102574.31;5002832;28;20073;-68
2021/11/22 07:35:44;;;;;;;2.10;0.85;;;;;;;0.20;52.77;102579.09;4985076;28;20065;-68
2021/11/22 07:38:10;;;;;;;1.52;0.30;;;;;;;0.58;52.48;102586.22;4984763;28;20103;-68
2021/11/22 07:40:36;;;;;;;2.90;0.75;;;;;;;0.86;51.40;102585.31;4984690;28;20648;-68
2021/11/22 07:43:02;;;;;;;3.13;0.88;;;;;;;0.93;50.46;102587.22;4982141;28;20037;-68
2021/11/22 07:45:28;;;;;;;2.90;0.88;;;;;;;0.89;50.59;102590.53;4980803;28;20696;-68
2021/11/22 07:47:54;;;;;;;4.53;0.60;;;;;;;0.90;50.57;102587.09;4982073;28;20684;-68
2021/11/22 07:50:22;;;;;;;3.17;0.73;;;;;;;0.86;50.88;102598.19;5001576;28;20121;-68
2021/11/22 07:52:48;;;;;;;2.72;0.70;;;;;;;0.89;50.91;102585.38;4981566;28;20082;-67
2021/11/22 07:55:14;;;;;;;8.85;1.42;;;;;;;0.89;50.97;102596.53;5001047;28;20041;-68
2021/11/22 07:57:40;;;;;;;1.83;0.40;;;;;;;0.85;50.93;102607.56;4979971;28;20042;-68
2021/11/22 08:00:08;;;;;;;1.90;0.60;;;;;;;1.13;51.31;102613.50;4982061;28;20045;-67
2021/11/22 08:02:37;;;;;;;2.72;0.68;;;;;;;1.89;50.47;102614.63;4978906;28;20087;-68
2021/11/22 08:05:05;;;;;;;4.90;0.88;;;;;;;2.76;48.72;102620.88;4997098;28;20484;-68
2021/11/22 08:07:32;;;;;;;2.97;0.60;;;;;;;4.04;48.37;102622.31;4981757;28;20041;-68
2021/11/22 08:10:04;;;;;;;3.22;0.50;;;;;;;5.41;44.64;102619.72;4982054;28;20072;-68
2021/11/22 08:12:31;;;;;;;1.52;0.50;;;;;;;6.53;41.95;102622.28;4984619;28;20116;-68
2021/11/22 08:15:10;;;;;;;2.20;0.43;;;;;;;6.93;38.18;102625.06;5003224;28;20507;-68
2021/11/22 08:17:40;;;;;;;1.63;0.52;;;;;;;6.49;39.58;102624.88;5004258;28;20046;-68
2021/11/22 08:20:11;;;;;;;1.48;0.50;;;;;;;5.62;39.15;102634.63;4987509;28;20117;-67
2021/11/22 08:22:36;;;;;;;0.95;0.30;;;;;;;4.84;40.47;102627.72;4985192;28;20107;-68
2021/11/22 08:25:04;;;;;;;2.00;0.50;;;;;;;4.25;41.73;102638.16;5004978;28;20124;-68
2021/11/22 08:27:31;;;;;;;5.97;0.47;;;;;;;3.78;43.44;102634.00;4977776;28;20033;-68
2021/11/22 08:30:01;;;;;;;1.38;0.40;;;;;;;3.50;44.69;102627.47;4991520;28;20034;-68
2021/11/22 08:32:26;;;;;;;2.05;0.30;;;;;;;3.30;44.90;102636.59;4985789;28;20046;-68
2021/11/22 08:34:52;;;;;;;4.40;0.43;;;;;;;3.21;45.58;102641.56;5002299;28;20049;-68
2021/11/22 08:37:18;;;;;;;3.17;0.30;;;;;;;3.52;47.24;102641.31;4986530;28;20093;-69
2021/11/22 08:39:43;;;;;;;3.05;0.73;;;;;;;4.69;45.88;102645.66;4976612;28;20526;-68
2021/11/22 08:42:09;;;;;;;2.70;0.68;;;;;;;5.90;43.20;102645.22;4984722;28;20065;-68
2021/11/22 08:44:35;;;;;;;3.63;0.60;;;;;;;6.76;41.61;102640.59;4988880;28;20047;-67
2021/11/22 08:47:02;;;;;;;1.17;0.30;;;;;;;7.53;40.63;102636.44;4969381;28;20038;-67
2021/11/22 08:49:28;;;;;;;3.55;1.08;;;;;;;7.93;37.47;102642.56;4987656;28;20052;-67
2021/11/22 08:51:53;;;;;;;1.60;0.57;;;;;;;7.98;39.42;102655.59;4985410;28;20071;-66
2021/11/22 08:54:19;;;;;;;1.38;0.30;;;;;;;7.83;37.88;102650.41;5004075;28;20479;-68
2021/11/22 08:56:45;;;;;;;4.38;0.68;;;;;;;7.94;38.66;102653.88;4985686;28;20057;-66
2021/11/22 08:59:11;;;;;;;2.10;0.60;;;;;;;8.10;37.16;102660.78;4985242;28;20048;-67
2021/11/22 09:01:37;;;;;;;3.53;0.63;;;;;;;8.08;37.42;102657.31;5001357;28;20034;-66
2021/11/22 09:04:04;;;;;;;2.08;0.65;;;;;;;8.33;37.46;102660.75;5003079;28;20479;-68
2021/11/22 09:06:30;;;;;;;1.73;0.50;;;;;;;8.42;38.58;102664.22;5003062;28;20420;-67
2021/11/22 09:08:56;;;;;;;4.97;0.85;;;;;;;8.65;36.41;102659.81;4984651;28;20065;-68
2021/11/22 09:11:22;;;;;;;3.08;1.17;;;;;;;8.70;35.18;102662.41;4992698;28;20060;-67
2021/11/22 09:13:47;;;;;;;4.00;1.42;;;;;;;8.66;36.58;102661.53;4984346;28;20496;-67
2021/11/22 09:16:13;;;;;;;3.25;1.25;;;;;;;8.68;36.37;102658.94;4985396;28;20059;-68
2021/11/22 09:18:38;;;;;;;2.60;1.23;;;;;;;9.25;35.80;102662.16;4990528;28;20062;-67
2021/11/22 09:21:04;;;;;;;5.90;1.10;;;;;;;9.33;34.88;102655.16;4969837;28;20029;-68
2021/11/22 09:23:31;;;;;;;4.85;1.30;;;;;;;9.34;36.06;102664.72;4968113;28;20037;-69
2021/11/22 09:25:58;;;;;;;5.90;0.73;;;;;;;9.53;35.52;102673.28;4985503;28;20049;-68
2021/11/22 09:28:24;;;;;;;1.30;0.52;;;;;;;9.88;35.08;102669.59;4984951;28;20129;-66
2021/11/22 09:30:49;;;;;;;1.58;0.57;;;;;;;10.00;33.87;102663.38;5001491;28;20507;-68
2021/11/22 09:33:16;;;;;;;2.15;0.70;;;;;;;9.98;34.47;102670.34;4984752;28;20073;-68
2021/11/22 09:35:42;;;;;;;3.17;0.40;;;;;;;9.98;34.80;102671.22;4986136;28;20519;-67
2021/11/22 09:38:08;;;;;;;3.08;0.50;;;;;;;10.14;34.21;102676.31;4983279;28;20065;-68
2021/11/22 09:40:35;;;;;;;2.30;0.55;;;;;;;9.93;35.46;102674.75;5003129;28;20080;-68
2021/11/22 09:43:00;;;;;;;2.53;0.82;;;;;;;9.76;35.35;102674.84;4975228;28;20049;-67
2021/11/22 09:45:27;;;;;;;3.40;0.65;;;;;;;9.59;37.10;102686.31;4966612;28;20046;-68
2021/11/22 09:47:58;;;;;;;1.33;0.40;;;;;;;10.02;35.91;102687.75;4974767;28;20041;-68
2021/11/22 09:50:25;;;;;;;1.20;0.52;;;;;;;10.48;34.57;102686.41;5004109;28;20029;-67
2021/11/22 09:52:51;;;;;;;1.92;0.93;;;;;;;10.88;33.40;102681.63;5000628;28;20053;-68
2021/11/22 09:55:17;;;;;;;2.88;0.38;;;;;;;10.90;34.55;102690.31;5001433;28;20444;-66
2021/11/22 09:57:43;;;;;;;2.75;0.30;;;;;;;10.97;33.72;102686.75;4998863;28;20076;-68
2021/11/22 10:00:11;;;;;;;3.90;0.60;;;;;;;10.12;34.15;102685.91;4977887;28;20053;-67
2021/11/22 10:02:54;;;;;;;2.43;0.33;;;;;;;10.07;35.68;102692.91;5000663;28;20079;-67
2021/11/22 10:05:33;;;;;;;2.53;0.50;;;;;;;10.09;36.15;102684.19;4983221;28;20293;-67
2021/11/22 10:08:11;;;;;;;1.23;0.32;;;;;;;10.01;36.39;102686.88;4968130;28;20167;-67
2021/11/22 10:10:47;;;;;;;3.65;0.73;;;;;;;9.71;36.67;102687.94;4974273;28;20538;-69
2021/11/22 10:13:32;;;;;;;3.30;0.50;;;;;;;9.21;36.44;102685.66;4968422;28;20049;-66
2021/11/22 10:16:07;;;;;;;3.55;0.75;;;;;;;9.14;37.21;102688.31;5000877;28;20395;-68
2021/11/22 10:18:47;;;;;;;1.85;0.40;;;;;;;9.23;35.75;102690.00;5000923;28;20591;-68
2021/11/22 10:21:34;;;;;;;3.60;0.20;;;;;;;9.28;35.68;102688.25;4983445;28;20377;-67
2021/11/22 10:24:04;;;;;;;1.77;0.30;;;;;;;9.35;35.81;102683.84;5001559;28;20050;-68
2021/11/22 10:26:45;;;;;;;3.47;0.30;;;;;;;9.31;35.58;102682.13;5001307;28;20113;-67
2021/11/22 10:29:31;;;;;;;2.92;0.30;;;;;;;9.64;35.34;102685.41;5000868;28;20041;-67
2021/11/22 10:31:59;;;;;;;4.50;0.82;;;;;;;9.65;35.58;102684.53;4966549;28;20045;-68
2021/11/22 10:34:25;;;;;;;2.83;0.47;;;;;;;9.73;34.77;102687.94;4965521;28;20041;-67
2021/11/22 10:37:06;;;;;;;0.63;0.08;;;;;;;8.84;37.42;102676.28;4990211;28;20037;-67
2021/11/22 10:39:33;;;;;;;0.85;0.20;;;;;;;8.92;37.70;102671.03;4985194;28;20464;-68
2021/11/22 10:41:59;;;;;;;1.70;0.30;;;;;;;8.68;36.65;102680.66;4985568;28;20064;-67
2021/11/22 10:44:31;;;;;;;1.30;0.52;;;;;;;9.37;36.57;102682.97;5007431;28;20057;-67
2021/11/22 10:47:09;;;;;;;3.28;0.63;;;;;;;8.47;36.46;102678.97;4987797;28;20046;-67
2021/11/22 10:52:27;;;;;;;2.33;0.22;;;;;;;9.46;37.49;102682.03;4984145;28;20048;-67
2021/11/22 10:54:58;;;;;;;8.43;0.55;;;;;;;10.35;35.61;102683.94;4984849;28;20042;-68
2021/11/22 10:57:33;;;;;;;0.68;0.20;;;;;;;10.69;32.72;102685.31;4980559;28;20722;-66
2021/11/22 10:59:58;;;;;;;1.10;0.10;;;;;;;11.09;33.41;102685.72;4985013;28;20065;-67
2021/11/22 11:02:40;;;;;;;0.45;0.10;;;;;;;9.84;33.00;102678.31;4970053;28;20045;-66
2021/11/22 11:05:06;;;;;;;0.57;0.10;;;;;;;9.64;34.25;102686.25;4985702;28;20053;-67
2021/11/22 11:07:31;;;;;;;1.75;0.10;;;;;;;9.88;34.60;102679.13;4985414;28;20085;-68
2021/11/22 11:09:58;;;;;;;2.17;0.10;;;;;;;9.83;34.21;102683.53;4989019;28;20371;-67
2021/11/22 11:12:25;;;;;;;0.10;0.00;;;;;;;9.85;33.01;102682.66;4983783;28;20041;-67
2021/11/22 11:14:53;;;;;;;0.40;0.10;;;;;;;10.21;33.81;102678.88;4985429;28;20455;-68
2021/11/22 11:17:31;;;;;;;3.25;0.10;;;;;;;9.94;33.86;102679.94;4972375;28;20037;-67
2021/11/22 11:20:04;;;;;;;4.68;0.57;;;;;;;9.28;35.70;102684.78;5002497;28;20092;-67
2021/11/22 11:22:30;;;;;;;2.65;0.10;;;;;;;9.12;35.82;102686.56;5002912;28;20516;-67
2021/11/22 11:24:57;;;;;;;2.15;0.20;;;;;;;8.95;36.32;102682.31;4984945;28;20060;-67
2021/11/22 11:27:24;;;;;;;0.57;0.10;;;;;;;9.00;36.23;102686.63;4981342;28;20502;-66
2021/11/22 11:29:49;;;;;;;1.02;0.30;;;;;;;9.12;36.66;102691.78;4972612;28;20045;-67
2021/11/22 11:32:15;;;;;;;0.65;0.40;;;;;;;9.35;36.08;102691.69;4988120;28;20034;-67
2021/11/22 11:34:43;;;;;;;0.20;0.10;;;;;;;9.00;36.49;102689.25;4989816;28;20048;-67